<?xml version="1.0" encoding="UTF-8" standalone="no" ?>
<gpx xmlns="http://www.topografix.com/GPX/1/1" xmlns:xsi="http://www.w3.org/2001/XMLSchema-instance" xsi:schemaLocation="http://www.topografix.com/GPX/1/1 http://www.topografix.com/GPX/1/1/gpx.xsd" version="1.1" creator="VisuGPX - https://www.visugpx.com">
  <metadata>
    <name>ChapelleE_GesvresRagon_11-20km</name>
    <desc><![CDATA[gnerando idor:10119982_10751486_12328489_12879936_8202803]]></desc>
  </metadata>
  <trk>
    <name><![CDATA[ChapelleE_3communesGRP_8km-12139558]]></name>
    <extensions>
      <line xmlns="http://www.topografix.com/GPX/gpx_style/0/2">
        <color>FF00FF</color>
        <width>4</width>
      </line>
    </extensions>
    <trkseg>
      <trkpt lat="47.29716" lon="-1.59951">
        <ele>61</ele>
        <time>2023-11-15T17:45:57Z</time>
      </trkpt>
      <trkpt lat="47.29937" lon="-1.60147">
        <ele>59</ele>
        <time>2023-11-15T17:51:41Z</time>
      </trkpt>
      <trkpt lat="47.3015" lon="-1.60344">
        <ele>62</ele>
        <time>2023-11-15T17:57:17Z</time>
      </trkpt>
      <trkpt lat="47.30126" lon="-1.60355">
        <ele>62</ele>
        <time>2023-11-15T17:57:50Z</time>
      </trkpt>
      <trkpt lat="47.30009" lon="-1.60424">
        <ele>64</ele>
        <time>2023-11-15T18:00:38Z</time>
      </trkpt>
      <trkpt lat="47.30303" lon="-1.60836">
        <ele>59</ele>
        <time>2023-11-15T18:09:40Z</time>
      </trkpt>
      <trkpt lat="47.30494" lon="-1.60866">
        <ele>60</ele>
        <time>2023-11-15T18:13:56Z</time>
      </trkpt>
      <trkpt lat="47.30588" lon="-1.60825">
        <ele>53</ele>
        <time>2023-11-15T18:16:07Z</time>
      </trkpt>
      <trkpt lat="47.30641" lon="-1.60817">
        <ele>52</ele>
        <time>2023-11-15T18:17:18Z</time>
      </trkpt>
      <trkpt lat="47.30713" lon="-1.6075">
        <ele>50</ele>
        <time>2023-11-15T18:19:11Z</time>
      </trkpt>
      <trkpt lat="47.30724" lon="-1.60813">
        <ele>48</ele>
        <time>2023-11-15T18:20:10Z</time>
      </trkpt>
      <trkpt lat="47.30797" lon="-1.60779">
        <ele>46</ele>
        <time>2023-11-15T18:21:52Z</time>
      </trkpt>
      <trkpt lat="47.30808" lon="-1.60845">
        <ele>42</ele>
        <time>2023-11-15T18:22:54Z</time>
      </trkpt>
      <trkpt lat="47.30806" lon="-1.60962">
        <ele>33</ele>
        <time>2023-11-15T18:24:40Z</time>
      </trkpt>
      <trkpt lat="47.30803" lon="-1.61118">
        <ele>38</ele>
        <time>2023-11-15T18:27:01Z</time>
      </trkpt>
      <trkpt lat="47.30759" lon="-1.61186">
        <ele>40</ele>
        <time>2023-11-15T18:28:26Z</time>
      </trkpt>
      <trkpt lat="47.30733" lon="-1.61286">
        <ele>44</ele>
        <time>2023-11-15T18:30:03Z</time>
      </trkpt>
      <trkpt lat="47.3073" lon="-1.61311">
        <ele>45</ele>
        <time>2023-11-15T18:30:26Z</time>
      </trkpt>
      <trkpt lat="47.30736" lon="-1.61374">
        <ele>46</ele>
        <time>2023-11-15T18:31:24Z</time>
      </trkpt>
      <trkpt lat="47.30694" lon="-1.61445">
        <ele>49</ele>
        <time>2023-11-15T18:32:49Z</time>
      </trkpt>
      <trkpt lat="47.30676" lon="-1.61479">
        <ele>51</ele>
        <time>2023-11-15T18:33:28Z</time>
      </trkpt>
      <trkpt lat="47.30734" lon="-1.61491">
        <ele>50</ele>
        <time>2023-11-15T18:34:46Z</time>
      </trkpt>
      <trkpt lat="47.30752" lon="-1.6156">
        <ele>55</ele>
        <time>2023-11-15T18:35:53Z</time>
      </trkpt>
      <trkpt lat="47.30777" lon="-1.61604">
        <ele>57</ele>
        <time>2023-11-15T18:36:45Z</time>
      </trkpt>
      <trkpt lat="47.30832" lon="-1.61708">
        <ele>60</ele>
        <time>2023-11-15T18:38:44Z</time>
      </trkpt>
      <trkpt lat="47.30902" lon="-1.61738">
        <ele>56</ele>
        <time>2023-11-15T18:40:21Z</time>
      </trkpt>
      <trkpt lat="47.30906" lon="-1.61794">
        <ele>56</ele>
        <time>2023-11-15T18:41:12Z</time>
      </trkpt>
      <trkpt lat="47.30899" lon="-1.61844">
        <ele>57</ele>
        <time>2023-11-15T18:41:59Z</time>
      </trkpt>
      <trkpt lat="47.30916" lon="-1.61845">
        <ele>56</ele>
        <time>2023-11-15T18:42:21Z</time>
      </trkpt>
      <trkpt lat="47.30915" lon="-1.6187">
        <ele>57</ele>
        <time>2023-11-15T18:42:44Z</time>
      </trkpt>
      <trkpt lat="47.30917" lon="-1.61891">
        <ele>57</ele>
        <time>2023-11-15T18:43:03Z</time>
      </trkpt>
      <trkpt lat="47.30916" lon="-1.61914">
        <ele>58</ele>
        <time>2023-11-15T18:43:24Z</time>
      </trkpt>
      <trkpt lat="47.30896" lon="-1.61939">
        <ele>59</ele>
        <time>2023-11-15T18:43:59Z</time>
      </trkpt>
      <trkpt lat="47.30883" lon="-1.61983">
        <ele>61</ele>
        <time>2023-11-15T18:44:42Z</time>
      </trkpt>
      <trkpt lat="47.30867" lon="-1.62032">
        <ele>61</ele>
        <time>2023-11-15T18:45:32Z</time>
      </trkpt>
      <trkpt lat="47.3084" lon="-1.62111">
        <ele>63</ele>
        <time>2023-11-15T18:46:52Z</time>
      </trkpt>
      <trkpt lat="47.30787" lon="-1.62236">
        <ele>62</ele>
        <time>2023-11-15T18:49:05Z</time>
      </trkpt>
      <trkpt lat="47.30777" lon="-1.62248">
        <ele>62</ele>
        <time>2023-11-15T18:49:22Z</time>
      </trkpt>
      <trkpt lat="47.30846" lon="-1.62321">
        <ele>61</ele>
        <time>2023-11-15T18:51:16Z</time>
      </trkpt>
      <trkpt lat="47.30944" lon="-1.62345">
        <ele>55</ele>
        <time>2023-11-15T18:53:28Z</time>
      </trkpt>
      <trkpt lat="47.30954" lon="-1.62328">
        <ele>54</ele>
        <time>2023-11-15T18:53:49Z</time>
      </trkpt>
      <trkpt lat="47.30975" lon="-1.62339">
        <ele>53</ele>
        <time>2023-11-15T18:54:18Z</time>
      </trkpt>
      <trkpt lat="47.30983" lon="-1.6235">
        <ele>53</ele>
        <time>2023-11-15T18:54:33Z</time>
      </trkpt>
      <trkpt lat="47.30984" lon="-1.62408">
        <ele>55</ele>
        <time>2023-11-15T18:55:25Z</time>
      </trkpt>
      <trkpt lat="47.30993" lon="-1.62439">
        <ele>55</ele>
        <time>2023-11-15T18:55:56Z</time>
      </trkpt>
      <trkpt lat="47.31033" lon="-1.62471">
        <ele>52</ele>
        <time>2023-11-15T18:56:57Z</time>
      </trkpt>
      <trkpt lat="47.3103" lon="-1.62499">
        <ele>52</ele>
        <time>2023-11-15T18:57:22Z</time>
      </trkpt>
      <trkpt lat="47.30921" lon="-1.62512">
        <ele>58</ele>
        <time>2023-11-15T18:59:48Z</time>
      </trkpt>
      <trkpt lat="47.30858" lon="-1.62513">
        <ele>60</ele>
        <time>2023-11-15T19:01:12Z</time>
      </trkpt>
      <trkpt lat="47.30795" lon="-1.62544">
        <ele>61</ele>
        <time>2023-11-15T19:02:41Z</time>
      </trkpt>
      <trkpt lat="47.30721" lon="-1.62595">
        <ele>62</ele>
        <time>2023-11-15T19:04:30Z</time>
      </trkpt>
      <trkpt lat="47.30646" lon="-1.6263">
        <ele>62</ele>
        <time>2023-11-15T19:06:15Z</time>
      </trkpt>
      <trkpt lat="47.30593" lon="-1.62611">
        <ele>64</ele>
        <time>2023-11-15T19:07:28Z</time>
      </trkpt>
      <trkpt lat="47.30526" lon="-1.62574">
        <ele>65</ele>
        <time>2023-11-15T19:09:03Z</time>
      </trkpt>
      <trkpt lat="47.30467" lon="-1.62561">
        <ele>66</ele>
        <time>2023-11-15T19:10:23Z</time>
      </trkpt>
      <trkpt lat="47.30347" lon="-1.62461">
        <ele>66</ele>
        <time>2023-11-15T19:13:27Z</time>
      </trkpt>
      <trkpt lat="47.30338" lon="-1.6251">
        <ele>66</ele>
        <time>2023-11-15T19:14:13Z</time>
      </trkpt>
      <trkpt lat="47.3028" lon="-1.62657">
        <ele>67</ele>
        <time>2023-11-15T19:16:47Z</time>
      </trkpt>
      <trkpt lat="47.30247" lon="-1.62708">
        <ele>66</ele>
        <time>2023-11-15T19:17:50Z</time>
      </trkpt>
      <trkpt lat="47.30127" lon="-1.62842">
        <ele>63</ele>
        <time>2023-11-15T19:21:11Z</time>
      </trkpt>
      <trkpt lat="47.30064" lon="-1.62902">
        <ele>63</ele>
        <time>2023-11-15T19:22:51Z</time>
      </trkpt>
      <trkpt lat="47.29951" lon="-1.6305">
        <ele>63</ele>
        <time>2023-11-15T19:26:13Z</time>
      </trkpt>
      <trkpt lat="47.29795" lon="-1.62814">
        <ele>61</ele>
        <time>2023-11-15T19:31:11Z</time>
      </trkpt>
      <trkpt lat="47.29769" lon="-1.62709">
        <ele>60</ele>
        <time>2023-11-15T19:32:52Z</time>
      </trkpt>
      <trkpt lat="47.29724" lon="-1.62665">
        <ele>59</ele>
        <time>2023-11-15T19:34:04Z</time>
      </trkpt>
      <trkpt lat="47.29644" lon="-1.62637">
        <ele>57</ele>
        <time>2023-11-15T19:35:54Z</time>
      </trkpt>
      <trkpt lat="47.2966" lon="-1.62546">
        <ele>55</ele>
        <time>2023-11-15T19:37:19Z</time>
      </trkpt>
      <trkpt lat="47.29644" lon="-1.62463">
        <ele>55</ele>
        <time>2023-11-15T19:38:37Z</time>
      </trkpt>
      <trkpt lat="47.29619" lon="-1.6241">
        <ele>55</ele>
        <time>2023-11-15T19:39:36Z</time>
      </trkpt>
      <trkpt lat="47.29619" lon="-1.62401">
        <ele>55</ele>
        <time>2023-11-15T19:39:44Z</time>
      </trkpt>
      <trkpt lat="47.29603" lon="-1.62398">
        <ele>54</ele>
        <time>2023-11-15T19:40:05Z</time>
      </trkpt>
      <trkpt lat="47.29623" lon="-1.62351">
        <ele>55</ele>
        <time>2023-11-15T19:40:56Z</time>
      </trkpt>
      <trkpt lat="47.29618" lon="-1.62278">
        <ele>56</ele>
        <time>2023-11-15T19:42:02Z</time>
      </trkpt>
      <trkpt lat="47.29629" lon="-1.62277">
        <ele>56</ele>
        <time>2023-11-15T19:42:17Z</time>
      </trkpt>
      <trkpt lat="47.29596" lon="-1.62169">
        <ele>55</ele>
        <time>2023-11-15T19:44:04Z</time>
      </trkpt>
      <trkpt lat="47.29543" lon="-1.62055">
        <ele>56</ele>
        <time>2023-11-15T19:46:09Z</time>
      </trkpt>
      <trkpt lat="47.29563" lon="-1.61949">
        <ele>56</ele>
        <time>2023-11-15T19:47:49Z</time>
      </trkpt>
      <trkpt lat="47.29562" lon="-1.61932">
        <ele>56</ele>
        <time>2023-11-15T19:48:04Z</time>
      </trkpt>
      <trkpt lat="47.29588" lon="-1.6189">
        <ele>56</ele>
        <time>2023-11-15T19:48:56Z</time>
      </trkpt>
      <trkpt lat="47.29359" lon="-1.61505">
        <ele>57</ele>
        <time>2023-11-15T19:56:39Z</time>
      </trkpt>
      <trkpt lat="47.29332" lon="-1.61466">
        <ele>57</ele>
        <time>2023-11-15T19:57:29Z</time>
      </trkpt>
      <trkpt lat="47.29316" lon="-1.61448">
        <ele>58</ele>
        <time>2023-11-15T19:57:56Z</time>
      </trkpt>
      <trkpt lat="47.2929" lon="-1.61433">
        <ele>59</ele>
        <time>2023-11-15T19:58:34Z</time>
      </trkpt>
      <trkpt lat="47.29241" lon="-1.61433">
        <ele>60</ele>
        <time>2023-11-15T19:59:39Z</time>
      </trkpt>
      <trkpt lat="47.29182" lon="-1.61322">
        <ele>57</ele>
        <time>2023-11-15T20:01:47Z</time>
      </trkpt>
      <trkpt lat="47.2915" lon="-1.61243">
        <ele>59</ele>
        <time>2023-11-15T20:03:10Z</time>
      </trkpt>
      <trkpt lat="47.29111" lon="-1.61157">
        <ele>61</ele>
        <time>2023-11-15T20:04:44Z</time>
      </trkpt>
      <trkpt lat="47.29078" lon="-1.6112">
        <ele>62</ele>
        <time>2023-11-15T20:05:39Z</time>
      </trkpt>
      <trkpt lat="47.29063" lon="-1.61114">
        <ele>62</ele>
        <time>2023-11-15T20:06:00Z</time>
      </trkpt>
      <trkpt lat="47.29059" lon="-1.61104">
        <ele>62</ele>
        <time>2023-11-15T20:06:10Z</time>
      </trkpt>
      <trkpt lat="47.28955" lon="-1.60984">
        <ele>64</ele>
        <time>2023-11-15T20:09:06Z</time>
      </trkpt>
      <trkpt lat="47.29001" lon="-1.60912">
        <ele>64</ele>
        <time>2023-11-15T20:10:36Z</time>
      </trkpt>
      <trkpt lat="47.29056" lon="-1.6082">
        <ele>62</ele>
        <time>2023-11-15T20:12:27Z</time>
      </trkpt>
      <trkpt lat="47.29067" lon="-1.60809">
        <ele>62</ele>
        <time>2023-11-15T20:12:45Z</time>
      </trkpt>
      <trkpt lat="47.29081" lon="-1.60779">
        <ele>62</ele>
        <time>2023-11-15T20:13:18Z</time>
      </trkpt>
      <trkpt lat="47.29139" lon="-1.60704">
        <ele>61</ele>
        <time>2023-11-15T20:15:01Z</time>
      </trkpt>
      <trkpt lat="47.29173" lon="-1.60633">
        <ele>60</ele>
        <time>2023-11-15T20:16:19Z</time>
      </trkpt>
      <trkpt lat="47.29201" lon="-1.6055">
        <ele>58</ele>
        <time>2023-11-15T20:17:43Z</time>
      </trkpt>
      <trkpt lat="47.29232" lon="-1.60489">
        <ele>57</ele>
        <time>2023-11-15T20:18:52Z</time>
      </trkpt>
      <trkpt lat="47.29293" lon="-1.60453">
        <ele>56</ele>
        <time>2023-11-15T20:20:20Z</time>
      </trkpt>
      <trkpt lat="47.2937" lon="-1.60335">
        <ele>56</ele>
        <time>2023-11-15T20:22:48Z</time>
      </trkpt>
      <trkpt lat="47.29468" lon="-1.60198">
        <ele>60</ele>
        <time>2023-11-15T20:25:48Z</time>
      </trkpt>
      <trkpt lat="47.2954" lon="-1.60093">
        <ele>61</ele>
        <time>2023-11-15T20:28:03Z</time>
      </trkpt>
      <trkpt lat="47.29666" lon="-1.59906">
        <ele>62</ele>
        <time>2023-11-15T20:32:02Z</time>
      </trkpt>
      <trkpt lat="47.29718" lon="-1.59942">
        <ele>61</ele>
        <time>2023-11-15T20:33:19Z</time>
      </trkpt>
    </trkseg>
  </trk>
</gpx>